Insular — CSDD — position and weather

sailwx.info

Track history (hours):
 
Tides and Currents Weather Stations Pressure Air Temp Water Temp Dewpoint Dewpoint Depression Visibility Wind Speed Wind Dir Waves Ship Positions

Insular

Last reported at 2016-Dec-04 23:30 UTC. Time now 2016-Dec-07 16:21 UTC.
Position N 38°13' W 009°52'.

Length 120 m; draft 5.4 m.

Type: Ship (hazmat cat A). MMSI: 263752000.

Date/timePositionNaut miles runAvg speedWind from/ knotsBaromVisibWave heightAir tempDewpointWater temp
2016-Dec-04 23:30N 38°13' W 009°52'1414.6
2016-Dec-04 22:34N 38°23' W 009°41'1514.6
2016-Dec-04 21:33N 38°34' W 009°27'1514.2
2016-Dec-04 20:32N 38°41' W 009°12'4 0.3
2016-Dec-04 07:25N 38°43' W 009°07'7 7.8
2016-Dec-04 06:31N 38°41' W 009°16'1212.1
2016-Dec-04 05:33N 38°38' W 009°30'1111.2
2016-Dec-04 04:33N 38°43' W 009°42'1313.2
2016-Dec-04 03:34N 38°56' W 009°43'1312.5
2016-Dec-04 02:33N 39°09' W 009°43'1312.8
2016-Dec-04 01:34N 39°22' W 009°43'1313.2
2016-Dec-04 00:33N 39°35' W 009°40'  
2016-Nov-28 03:22N 38°14' W 009°53'1315.8
2016-Nov-28 02:33N 38°23' W 009°41'1616.0
2016-Nov-28 01:33N 38°34' W 009°27'1413.8
2016-Nov-28 00:32N 38°41' W 009°11'4 4.1
2016-Nov-27 23:33N 38°43' W 009°07'0 0.0
2016-Nov-27 22:33N 38°43' W 009°07'0 0.0
2016-Nov-27 21:33N 38°43' W 009°07'0 0.0
2016-Nov-27 20:33N 38°43' W 009°07'0 0.0
2016-Nov-27 19:33N 38°43' W 009°07'0 0.0
2016-Nov-27 18:27N 38°43' W 009°07'0 0.0
2016-Nov-27 17:33N 38°43' W 009°07'0 0.0
2016-Nov-27 16:33N 38°43' W 009°07'0 0.0
2016-Nov-27 15:30N 38°43' W 009°07'0 0.0
2016-Nov-27 14:33N 38°43' W 009°07'0 0.0
2016-Nov-27 13:30N 38°43' W 009°07'0 0.0
2016-Nov-27 12:33N 38°43' W 009°07'0 0.0
2016-Nov-27 11:33N 38°43' W 009°07'0 0.0
2016-Nov-27 10:33N 38°43' W 009°07'0 0.0
2016-Nov-27 09:33N 38°43' W 009°07'0 0.0
2016-Nov-27 08:33N 38°43' W 009°07'0 0.2
2016-Nov-27 07:32N 38°43' W 009°07'10 9.8
2016-Nov-27 06:32N 38°40' W 009°19'1212.4
2016-Nov-27 05:33N 38°38' W 009°34'1111.4
2016-Nov-27 04:33N 38°47' W 009°43'1514.9
2016-Nov-27 03:33N 39°02' W 009°43'1515.2
2016-Nov-27 02:33N 39°18' W 009°43'  
Track history (hours):
 
Tides and Currents Weather Stations Pressure Air Temp Water Temp Dewpoint Dewpoint Depression Visibility Wind Speed Wind Dir Waves Ship Positions

Insular

Last reported at 2016-Dec-04 23:30 UTC. Time now 2016-Dec-07 16:21 UTC.
Position N 38°13' W 009°52'.

Length 120 m; draft 5.4 m.

Type: Ship (hazmat cat A). MMSI: 263752000.

Date/timePositionNaut miles runAvg speedWind from/ knotsBaromVisibWave heightAir tempDewpointWater temp
2016-Dec-04 23:30N 38°13' W 009°52'1414.6
2016-Dec-04 22:34N 38°23' W 009°41'1514.6
2016-Dec-04 21:33N 38°34' W 009°27'1514.2
2016-Dec-04 20:32N 38°41' W 009°12'4 0.3
2016-Dec-04 07:25N 38°43' W 009°07'7 7.8
2016-Dec-04 06:31N 38°41' W 009°16'1212.1
2016-Dec-04 05:33N 38°38' W 009°30'1111.2
2016-Dec-04 04:33N 38°43' W 009°42'1313.2
2016-Dec-04 03:34N 38°56' W 009°43'1312.5
2016-Dec-04 02:33N 39°09' W 009°43'1312.8
2016-Dec-04 01:34N 39°22' W 009°43'1313.2
2016-Dec-04 00:33N 39°35' W 009°40'  
2016-Nov-28 03:22N 38°14' W 009°53'1315.8
2016-Nov-28 02:33N 38°23' W 009°41'1616.0
2016-Nov-28 01:33N 38°34' W 009°27'1413.8
2016-Nov-28 00:32N 38°41' W 009°11'4 4.1
2016-Nov-27 23:33N 38°43' W 009°07'0 0.0
2016-Nov-27 22:33N 38°43' W 009°07'0 0.0
2016-Nov-27 21:33N 38°43' W 009°07'0 0.0
2016-Nov-27 20:33N 38°43' W 009°07'0 0.0
2016-Nov-27 19:33N 38°43' W 009°07'0 0.0
2016-Nov-27 18:27N 38°43' W 009°07'0 0.0
2016-Nov-27 17:33N 38°43' W 009°07'0 0.0
2016-Nov-27 16:33N 38°43' W 009°07'0 0.0
2016-Nov-27 15:30N 38°43' W 009°07'0 0.0
2016-Nov-27 14:33N 38°43' W 009°07'0 0.0
2016-Nov-27 13:30N 38°43' W 009°07'0 0.0
2016-Nov-27 12:33N 38°43' W 009°07'0 0.0
2016-Nov-27 11:33N 38°43' W 009°07'0 0.0
2016-Nov-27 10:33N 38°43' W 009°07'0 0.0
2016-Nov-27 09:33N 38°43' W 009°07'0 0.0
2016-Nov-27 08:33N 38°43' W 009°07'0 0.2
2016-Nov-27 07:32N 38°43' W 009°07'10 9.8
2016-Nov-27 06:32N 38°40' W 009°19'1212.4
2016-Nov-27 05:33N 38°38' W 009°34'1111.4
2016-Nov-27 04:33N 38°47' W 009°43'1514.9
2016-Nov-27 03:33N 39°02' W 009°43'1515.2
2016-Nov-27 02:33N 39°18' W 009°43'  

Dump ship's entire track history